Time,TemperatureF,DewpointF,PressureIn,WindDirection,WindDirectionDegrees,WindSpeedMPH,WindSpeedGustMPH,Humidity,HourlyPrecipIn,Conditions,Clouds,dailyrainin,SoftwareType,DateUTC
2013-11-26 00:11:00,25.3,21.0,30.36,SSW,212,0.0,0.0,83,0.00,,,0.00,weatherlink.com 1.10,2013-11-26 05:11:00,
2013-11-26 00:26:00,25.7,21.0,30.36,SSW,212,0.0,0.0,82,0.00,,,0.00,weatherlink.com 1.10,2013-11-26 05:26:00,
2013-11-26 00:41:00,26.0,22.0,30.35,SSW,212,0.0,0.0,83,0.00,,,0.00,weatherlink.com 1.10,2013-11-26 05:41:00,
2013-11-26 00:56:00,26.2,22.0,30.35,SSW,212,0.0,0.0,83,0.00,,,0.00,weatherlink.com 1.10,2013-11-26 05:56:00,
2013-11-26 01:11:00,26.3,22.0,30.35,SSW,212,0.0,0.0,84,0.00,,,0.00,weatherlink.com 1.10,2013-11-26 06:11:00,
2013-11-26 01:26:00,26.4,22.0,30.34,SSW,212,0.0,0.0,84,0.00,,,0.00,weatherlink.com 1.10,2013-11-26 06:26:00,
2013-11-26 01:41:00,26.7,23.0,30.33,SSW,212,0.0,0.0,85,0.00,,,0.00,weatherlink.com 1.10,2013-11-26 06:41:00,
2013-11-26 01:56:00,27.4,24.0,30.33,SSW,211,0.0,0.0,86,0.00,,,0.00,weatherlink.com 1.10,2013-11-26 06:56:00,
2013-11-26 02:11:00,27.8,24.0,30.33,SSW,212,0.0,0.0,85,0.00,,,0.00,weatherlink.com 1.10,2013-11-26 07:11:00,
2013-11-26 02:26:00,28.2,24.0,30.32,SSW,212,0.0,0.0,85,0.00,,,0.00,weatherlink.com 1.10,2013-11-26 07:26:00,
2013-11-26 02:41:00,28.6,25.0,30.31,South,188,0.0,0.0,86,0.00,,,0.00,weatherlink.com 1.10,2013-11-26 07:41:00,
2013-11-26 02:56:00,29.7,25.0,30.31,SW,215,0.0,0.0,82,0.00,,,0.00,weatherlink.com 1.10,2013-11-26 07:56:00,
2013-11-26 03:11:00,30.0,25.0,30.31,SSE,162,0.0,3.0,81,0.00,,,0.00,weatherlink.com 1.10,2013-11-26 08:11:00,
2013-11-26 03:26:00,30.0,25.0,30.31,South,184,0.0,0.0,82,0.00,,,0.00,weatherlink.com 1.10,2013-11-26 08:26:00,
2013-11-26 03:41:00,30.0,25.0,30.30,South,184,0.0,0.0,83,0.00,,,0.00,weatherlink.com 1.10,2013-11-26 08:41:00,
2013-11-26 03:56:00,30.1,26.0,30.31,South,184,0.0,0.0,83,0.00,,,0.00,weatherlink.com 1.10,2013-11-26 08:56:00,
2013-11-26 04:11:00,30.1,26.0,30.30,South,184,0.0,0.0,85,0.00,,,0.00,weatherlink.com 1.10,2013-11-26 09:11:00,
2013-11-26 04:26:00,30.4,26.0,30.30,ESE,122,0.0,1.0,84,0.00,,,0.00,weatherlink.com 1.10,2013-11-26 09:26:00,
2013-11-26 04:41:00,29.7,25.0,30.31,WSW,243,0.0,0.0,84,0.00,,,0.00,weatherlink.com 1.10,2013-11-26 09:41:00,
2013-11-26 04:56:00,28.8,25.0,30.30,WSW,243,0.0,0.0,85,0.00,,,0.00,weatherlink.com 1.10,2013-11-26 09:56:00,
2013-11-26 05:11:00,28.1,25.0,30.30,WSW,243,0.0,0.0,86,0.00,,,0.00,weatherlink.com 1.10,2013-11-26 10:11:00,
2013-11-26 05:26:00,27.3,24.0,30.29,WSW,243,0.0,0.0,87,0.00,,,0.00,weatherlink.com 1.10,2013-11-26 10:26:00,
2013-11-26 05:41:00,27.8,24.0,30.29,WSW,243,0.0,0.0,87,0.00,,,0.00,weatherlink.com 1.10,2013-11-26 10:41:00,
2013-11-26 05:57:00,29.0,25.0,30.29,WSW,243,0.0,0.0,86,0.00,,,0.00,weatherlink.com 1.10,2013-11-26 10:57:00,
2013-11-26 06:12:00,29.6,25.0,30.31,West,280,0.0,0.0,84,0.00,,,0.00,weatherlink.com 1.10,2013-11-26 11:12:00,
2013-11-26 06:27:00,30.4,26.0,30.29,ESE,120,0.0,0.0,85,0.00,,,0.00,weatherlink.com 1.10,2013-11-26 11:27:00,
2013-11-26 06:42:00,31.0,26.0,30.29,SE,143,0.0,1.0,81,0.00,,,0.00,weatherlink.com 1.10,2013-11-26 11:42:00,
2013-11-26 06:57:00,31.3,27.0,30.29,SE,143,0.0,0.0,83,0.00,,,0.00,weatherlink.com 1.10,2013-11-26 11:57:00,
2013-11-26 07:12:00,31.4,26.0,30.31,NNW,331,0.0,0.0,79,0.00,,,0.00,weatherlink.com 1.10,2013-11-26 12:12:00,
2013-11-26 07:27:00,32.1,26.0,30.30,ESE,116,0.0,0.0,79,0.00,,,0.00,weatherlink.com 1.10,2013-11-26 12:27:00,
2013-11-26 07:42:00,33.0,27.0,30.29,SSE,154,3.0,3.0,77,0.00,,,0.00,weatherlink.com 1.10,2013-11-26 12:42:00,
2013-11-26 07:57:00,34.2,26.0,30.31,SW,221,1.0,2.0,72,0.00,,,0.00,weatherlink.com 1.10,2013-11-26 12:57:00,
2013-11-26 08:12:00,35.0,26.0,30.32,SSW,206,0.0,1.0,70,0.00,,,0.00,weatherlink.com 1.10,2013-11-26 13:12:00,
2013-11-26 08:27:00,35.7,26.0,30.32,SE,146,0.0,0.0,67,0.00,,,0.00,weatherlink.com 1.10,2013-11-26 13:27:00,
2013-11-26 08:42:00,36.5,26.0,30.32,SSE,153,1.0,3.0,65,0.00,,,0.00,weatherlink.com 1.10,2013-11-26 13:42:00,
2013-11-26 08:57:00,37.3,26.0,30.32,SSE,159,0.0,2.0,63,0.00,,,0.00,weatherlink.com 1.10,2013-11-26 13:57:00,
2013-11-26 09:12:00,37.9,26.0,30.31,SE,143,0.0,2.0,62,0.00,,,0.00,weatherlink.com 1.10,2013-11-26 14:12:00,
2013-11-26 09:27:00,38.8,26.0,30.31,SE,142,0.0,1.0,61,0.00,,,0.00,weatherlink.com 1.10,2013-11-26 14:27:00,
2013-11-26 09:42:00,40.1,24.0,30.31,West,263,1.0,4.0,54,0.00,,,0.00,weatherlink.com 1.10,2013-11-26 14:42:00,
2013-11-26 09:57:00,40.6,23.0,30.30,WSW,247,2.0,6.0,50,0.00,,,0.00,weatherlink.com 1.10,2013-11-26 14:57:00,
2013-11-26 10:12:00,40.9,23.0,30.30,West,262,1.0,4.0,49,0.00,,,0.00,weatherlink.com 1.10,2013-11-26 15:12:00,
2013-11-26 10:27:00,40.9,22.0,30.29,WSW,247,3.0,4.0,47,0.00,,,0.00,weatherlink.com 1.10,2013-11-26 15:27:00,
2013-11-26 10:42:00,41.1,22.0,30.29,SW,231,1.0,2.0,47,0.00,,,0.00,weatherlink.com 1.10,2013-11-26 15:42:00,
2013-11-26 10:57:00,41.5,22.0,30.28,SW,223,3.0,4.0,46,0.00,,,0.00,weatherlink.com 1.10,2013-11-26 15:57:00,
2013-11-26 11:12:00,41.6,23.0,30.27,WSW,238,1.0,5.0,47,0.00,,,0.00,weatherlink.com 1.10,2013-11-26 16:12:00,
2013-11-26 11:27:00,41.5,22.0,30.26,SW,214,0.0,4.0,47,0.00,,,0.00,weatherlink.com 1.10,2013-11-26 16:27:00,
2013-11-26 11:42:00,41.5,23.0,30.24,East,99,0.0,0.0,48,0.00,,,0.00,weatherlink.com 1.10,2013-11-26 16:42:00,
2013-11-26 11:58:00,41.3,25.0,30.23,NE,37,1.0,3.0,52,0.00,,,0.00,weatherlink.com 1.10,2013-11-26 16:58:00,
2013-11-26 12:13:00,40.5,26.0,30.22,ENE,63,2.0,4.0,56,0.00,,,0.00,weatherlink.com 1.10,2013-11-26 17:13:00,
2013-11-26 12:28:00,40.1,29.0,30.22,East,88,2.0,2.0,64,0.00,,,0.00,weatherlink.com 1.10,2013-11-26 17:28:00,
2013-11-26 12:43:00,39.7,29.0,30.22,East,80,1.0,2.0,66,0.00,,,0.00,weatherlink.com 1.10,2013-11-26 17:43:00,
2013-11-26 12:58:00,39.3,32.0,30.21,East,92,1.0,4.0,74,0.00,,,0.00,weatherlink.com 1.10,2013-11-26 17:58:00,
2013-11-26 13:13:00,38.7,32.0,30.21,East,83,2.0,4.0,78,0.00,,,0.00,weatherlink.com 1.10,2013-11-26 18:13:00,
2013-11-26 13:28:00,38.1,33.0,30.21,East,98,2.0,3.0,82,0.00,,,0.00,weatherlink.com 1.10,2013-11-26 18:28:00,
2013-11-26 13:58:00,37.2,34.0,30.19,ENE,68,2.0,3.0,87,0.00,,,0.00,weatherlink.com 1.10,2013-11-26 18:58:00,
2013-11-26 14:13:00,36.9,34.0,30.18,ENE,71,2.0,3.0,88,0.00,,,0.00,weatherlink.com 1.10,2013-11-26 19:13:00,
2013-11-26 14:28:00,36.8,34.0,30.17,East,86,1.0,4.0,89,0.00,,,0.00,weatherlink.com 1.10,2013-11-26 19:28:00,
2013-11-26 14:43:00,36.6,34.0,30.17,ENE,78,1.0,4.0,89,0.00,,,0.00,weatherlink.com 1.10,2013-11-26 19:43:00,
2013-11-26 14:58:00,36.5,34.0,30.16,ESE,116,3.0,5.0,90,0.00,,,0.00,weatherlink.com 1.10,2013-11-26 19:58:00,
2013-11-26 15:13:00,36.3,34.0,30.16,East,94,2.0,4.0,90,0.00,,,0.00,weatherlink.com 1.10,2013-11-26 20:13:00,
2013-11-26 15:28:00,36.1,34.0,30.15,East,89,2.0,4.0,90,0.00,,,0.00,weatherlink.com 1.10,2013-11-26 20:28:00,
2013-11-26 15:43:00,35.8,33.0,30.15,East,89,4.0,7.0,90,0.00,,,0.00,weatherlink.com 1.10,2013-11-26 20:43:00,
2013-11-26 15:58:00,35.7,33.0,30.14,ESE,110,3.0,6.0,91,0.00,,,0.00,weatherlink.com 1.10,2013-11-26 20:58:00,
2013-11-26 16:13:00,35.6,33.0,30.13,ESE,112,1.0,4.0,91,0.00,,,0.00,weatherlink.com 1.10,2013-11-26 21:13:00,
2013-11-26 16:28:00,35.7,33.0,30.13,East,94,1.0,2.0,91,0.00,,,0.00,weatherlink.com 1.10,2013-11-26 21:28:00,
2013-11-26 16:43:00,35.8,34.0,30.12,ENE,65,1.0,4.0,92,0.00,,,0.00,weatherlink.com 1.10,2013-11-26 21:43:00,
2013-11-26 16:58:00,36.1,34.0,30.10,SE,131,2.0,4.0,92,0.00,,,0.00,weatherlink.com 1.10,2013-11-26 21:58:00,
2013-11-26 17:13:00,36.5,34.0,30.09,East,79,2.0,8.0,92,0.00,,,0.00,weatherlink.com 1.10,2013-11-26 22:13:00,
2013-11-26 17:28:00,37.2,35.0,30.08,East,90,1.0,9.0,92,0.00,,,0.00,weatherlink.com 1.10,2013-11-26 22:28:00,
2013-11-26 17:43:00,37.9,36.0,30.07,East,84,2.0,6.0,92,0.00,,,0.00,weatherlink.com 1.10,2013-11-26 22:43:00,
2013-11-26 17:58:00,38.7,37.0,30.06,East,96,3.0,6.0,92,0.00,,,0.00,weatherlink.com 1.10,2013-11-26 22:58:00,
2013-11-26 18:13:00,39.3,37.0,30.06,East,93,2.0,4.0,92,0.00,,,0.00,weatherlink.com 1.10,2013-11-26 23:13:00,
2013-11-26 18:28:00,39.8,38.0,30.05,East,89,2.0,3.0,92,0.00,,,0.00,weatherlink.com 1.10,2013-11-26 23:28:00,
2013-11-26 18:43:00,40.6,39.0,30.04,ENE,68,2.0,4.0,92,0.00,,,0.00,weatherlink.com 1.10,2013-11-26 23:43:00,
2013-11-26 18:59:00,42.0,40.0,30.03,ESE,113,3.0,10.0,92,0.00,,,0.00,weatherlink.com 1.10,2013-11-26 23:59:00,
2013-11-26 19:14:00,42.8,41.0,30.01,ENE,70,1.0,3.0,92,0.00,,,0.00,weatherlink.com 1.10,2013-11-27 00:14:00,
2013-11-26 19:29:00,43.8,42.0,29.98,ENE,60,8.0,11.0,92,0.00,,,0.00,weatherlink.com 1.10,2013-11-27 00:29:00,
2013-11-26 19:44:00,44.7,43.0,29.96,ENE,73,7.0,12.0,92,0.00,,,0.00,weatherlink.com 1.10,2013-11-27 00:44:00,
2013-11-26 19:59:00,45.5,43.0,29.94,ENE,78,7.0,14.0,92,0.00,,,0.00,weatherlink.com 1.10,2013-11-27 00:59:00,
2013-11-26 20:14:00,46.4,44.0,29.93,ENE,74,8.0,13.0,92,0.00,,,0.00,weatherlink.com 1.10,2013-11-27 01:14:00,
2013-11-26 20:29:00,47.1,45.0,29.92,East,87,5.0,9.0,92,0.00,,,0.00,weatherlink.com 1.10,2013-11-27 01:29:00,
2013-11-26 20:44:00,47.9,46.0,29.90,ESE,108,6.0,13.0,92,0.00,,,0.00,weatherlink.com 1.10,2013-11-27 01:44:00,
2013-11-26 20:59:00,48.6,46.0,29.88,ENE,68,5.0,11.0,92,0.00,,,0.00,weatherlink.com 1.10,2013-11-27 01:59:00,
2013-11-26 21:14:00,49.7,48.0,29.87,ESE,111,8.0,13.0,92,0.00,,,0.00,weatherlink.com 1.10,2013-11-27 02:14:00,
2013-11-26 21:29:00,50.4,48.0,29.84,ESE,108,5.0,13.0,92,0.00,,,0.00,weatherlink.com 1.10,2013-11-27 02:29:00,
2013-11-26 21:44:00,51.0,49.0,29.82,ESE,108,10.0,12.0,92,0.00,,,0.00,weatherlink.com 1.10,2013-11-27 02:44:00,
2013-11-26 21:59:00,51.9,50.0,29.80,SE,128,9.0,14.0,92,0.00,,,0.00,weatherlink.com 1.10,2013-11-27 02:59:00,
2013-11-26 22:14:00,52.5,50.0,29.79,SE,124,6.0,17.0,91,0.00,,,0.00,weatherlink.com 1.10,2013-11-27 03:14:00,
2013-11-26 22:29:00,53.0,51.0,29.77,ESE,117,8.0,18.0,91,0.00,,,0.00,weatherlink.com 1.10,2013-11-27 03:29:00,
2013-11-26 22:45:00,53.5,51.0,29.74,ESE,102,7.0,18.0,92,0.00,,,0.00,weatherlink.com 1.10,2013-11-27 03:45:00,
2013-11-26 23:00:00,54.2,52.0,29.72,ESE,121,13.0,17.0,92,0.00,,,0.00,weatherlink.com 1.10,2013-11-27 04:00:00,
2013-11-26 23:15:00,56.1,54.0,29.70,SE,127,14.0,21.0,92,0.00,,,0.00,weatherlink.com 1.10,2013-11-27 04:15:00,
2013-11-26 23:30:00,57.0,55.0,29.67,ESE,116,13.0,23.0,91,0.00,,,0.00,weatherlink.com 1.10,2013-11-27 04:30:00,
2013-11-26 23:45:00,57.7,55.0,29.65,ESE,112,14.0,21.0,91,0.00,,,0.00,weatherlink.com 1.10,2013-11-27 04:45:00,